Time;durP1;ratioP1;P1;durP2;ratioP2;P2;SDS_P1;SDS_P2;PMS_P1;PMS_P2;Temp;Humidity;BMP_temperature;BMP_pressure;BME280_temperature;BME280_humidity;BME280_pressure;Samples;Min_cycle;Max_cycle;Signal;HPM_P1;HPM_P2
2024/01/18 00:00:06;;;;;;;29.97;21.70;;;-0.10;16.40;;;;;;5011932;28;20199;-70
2024/01/18 00:02:31;;;;;;;39.80;22.73;;;-0.30;17.10;;;;;;5011916;28;20172;-70
2024/01/18 00:04:57;;;;;;;37.57;22.60;;;-0.20;19.10;;;;;;5011931;28;20255;-70
2024/01/18 00:07:22;;;;;;;34.50;21.90;;;-0.20;13.20;;;;;;5011826;28;20567;-70
2024/01/18 00:09:48;;;;;;;31.77;20.93;;;-0.10;9.20;;;;;;5029301;28;20198;-70
2024/01/18 00:12:14;;;;;;;30.57;20.27;;;-0.20;4.10;;;;;;5031534;28;20206;-70
2024/01/18 00:14:39;;;;;;;36.70;23.10;;;-0.20;1.00;;;;;;5031481;28;20242;-71
2024/01/18 00:17:05;;;;;;;35.13;22.20;;;-0.20;1.00;;;;;;5031944;28;20180;-70
2024/01/18 00:19:30;;;;;;;38.13;22.33;;;-0.40;1.00;;;;;;5031119;28;20694;-70
2024/01/18 00:21:56;;;;;;;35.83;22.20;;;-0.40;1.00;;;;;;5020134;28;20222;-70
2024/01/18 00:24:22;;;;;;;36.00;21.07;;;-0.40;1.00;;;;;;5011900;28;20184;-71
2024/01/18 00:26:47;;;;;;;31.30;21.53;;;-0.50;1.00;;;;;;5010530;28;20707;-70
2024/01/18 00:29:13;;;;;;;33.70;22.20;;;-0.50;1.00;;;;;;5011664;28;20261;-70
2024/01/18 00:31:39;;;;;;;35.83;22.33;;;-0.40;1.00;;;;;;5011676;28;20230;-71
2024/01/18 00:34:04;;;;;;;33.00;20.93;;;-0.40;1.00;;;;;;5011591;28;20636;-71
2024/01/18 00:36:30;;;;;;;37.53;22.10;;;-0.50;1.00;;;;;;5020201;28;20199;-71
2024/01/18 00:38:55;;;;;;;31.27;21.53;;;-0.50;1.00;;;;;;5027842;28;20192;-71
2024/01/18 00:41:21;;;;;;;35.60;20.87;;;-0.40;1.00;;;;;;5011506;28;20172;-71
2024/01/18 00:43:48;;;;;;;31.93;21.33;;;-0.40;1.00;;;;;;5011316;28;20184;-71
2024/01/18 00:46:13;;;;;;;34.10;19.07;;;-0.50;1.00;;;;;;5011182;28;20219;-70
2024/01/18 00:48:39;;;;;;;38.30;21.03;;;-0.40;1.00;;;;;;5020404;28;20195;-71
2024/01/18 00:51:04;;;;;;;34.53;21.47;;;-0.40;1.00;;;;;;5030905;28;20214;-71
2024/01/18 00:53:30;;;;;;;30.90;22.37;;;-0.40;1.00;;;;;;5031266;28;20594;-71
2024/01/18 00:55:56;;;;;;;33.03;21.70;;;-0.60;1.00;;;;;;5031010;28;20198;-71
2024/01/18 00:58:21;;;;;;;28.33;17.53;;;-0.40;1.00;;;;;;5031341;28;20705;-71
2024/01/18 01:00:47;;;;;;;35.37;22.67;;;-0.50;1.00;;;;;;5030940;28;20372;-71
2024/01/18 01:03:13;;;;;;;34.60;21.40;;;-0.60;1.00;;;;;;5022944;28;20179;-71
2024/01/18 01:05:38;;;;;;;29.57;20.03;;;-0.40;1.00;;;;;;5010989;28;20761;-71
2024/01/18 01:08:04;;;;;;;38.13;22.97;;;-0.60;1.00;;;;;;5011073;28;20250;-71
2024/01/18 01:10:30;;;;;;;36.27;22.00;;;-0.60;1.00;;;;;;5010824;28;20196;-70
2024/01/18 01:12:56;;;;;;;34.03;22.97;;;-0.50;1.00;;;;;;5009932;28;20183;-71
2024/01/18 01:15:21;;;;;;;36.00;20.83;;;-0.60;1.00;;;;;;5010944;28;20192;-71
2024/01/18 01:17:47;;;;;;;30.03;21.00;;;-0.40;3.90;;;;;;5010928;28;20558;-70
2024/01/18 01:20:12;;;;;;;32.37;22.33;;;-0.30;1.00;;;;;;5010791;28;20168;-70
2024/01/18 01:22:38;;;;;;;35.47;21.57;;;-0.30;1.00;;;;;;5010486;28;20247;-72
2024/01/18 01:25:04;;;;;;;30.47;21.40;;;-0.50;1.00;;;;;;5009772;28;20202;-71
2024/01/18 01:27:30;;;;;;;33.53;20.13;;;-0.40;1.00;;;;;;5028233;28;20659;-73
2024/01/18 01:29:55;;;;;;;34.37;21.57;;;-0.30;1.00;;;;;;5030523;28;20203;-72
2024/01/18 01:32:21;;;;;;;36.13;22.03;;;-0.40;1.00;;;;;;5030679;28;20171;-71
2024/01/18 01:34:46;;;;;;;36.20;22.07;;;-0.40;1.00;;;;;;5030604;28;20199;-70
2024/01/18 01:37:13;;;;;;;32.60;21.53;;;-0.30;1.00;;;;;;5030835;28;20172;-71
2024/01/18 01:39:39;;;;;;;34.63;21.43;;;-0.50;1.00;;;;;;5030806;28;20673;-72
2024/01/18 01:42:05;;;;;;;31.77;21.97;;;-0.50;1.00;;;;;;5014431;28;20172;-72
2024/01/18 01:44:31;;;;;;;28.30;19.90;;;-0.40;1.00;;;;;;5019959;28;20222;-71
2024/01/18 01:46:56;;;;;;;28.77;19.90;;;-0.40;1.00;;;;;;5030938;28;20186;-71
2024/01/18 01:49:22;;;;;;;36.20;21.30;;;-0.50;1.00;;;;;;5030218;28;20549;-72
2024/01/18 01:51:51;;;;;;;30.23;20.00;;;-0.50;1.00;;;;;;5023180;28;20216;-72
2024/01/18 01:54:19;;;;;;;37.03;21.80;;;-0.40;1.00;;;;;;5010677;28;20533;-71
2024/01/18 01:56:46;;;;;;;31.13;20.13;;;-0.50;1.00;;;;;;5010687;28;20168;-72
2024/01/18 01:59:13;;;;;;;34.27;22.33;;;-0.30;1.00;;;;;;5029020;28;20206;-72
2024/01/18 02:01:41;;;;;;;35.63;20.73;;;-0.40;1.00;;;;;;5033942;28;20172;-71
2024/01/18 02:04:06;;;;;;;32.63;21.67;;;-0.40;1.00;;;;;;5033926;28;20691;-72
2024/01/18 02:06:34;;;;;;;30.53;19.57;;;-0.40;1.00;;;;;;5033919;28;20226;-70
2024/01/18 02:09:03;;;;;;;32.33;21.37;;;-0.50;1.00;;;;;;5033744;28;20274;-70
2024/01/18 02:11:30;;;;;;;29.43;19.57;;;-0.50;1.00;;;;;;5029924;28;20196;-70
2024/01/18 02:13:56;;;;;;;34.13;22.00;;;-0.50;1.00;;;;;;5013998;28;20172;-70
2024/01/18 02:16:23;;;;;;;26.93;22.37;;;-0.50;1.00;;;;;;5013899;28;20164;-70
2024/01/18 02:18:49;;;;;;;31.20;20.27;;;-0.30;1.00;;;;;;5013787;28;20192;-70
2024/01/18 02:21:14;;;;;;;32.93;19.60;;;-0.40;1.00;;;;;;5014330;28;20179;-70
2024/01/18 02:23:45;;;;;;;34.47;21.70;;;-0.40;1.00;;;;;;5028920;28;20214;-70
2024/01/18 02:26:10;;;;;;;31.73;20.03;;;-0.50;1.00;;;;;;5033728;28;20175;-70
2024/01/18 02:28:36;;;;;;;30.23;22.20;;;-0.30;1.00;;;;;;5033201;28;20324;-71
2024/01/18 02:31:02;;;;;;;28.47;20.03;;;-0.50;1.00;;;;;;5031658;28;20199;-70
2024/01/18 02:33:27;;;;;;;29.37;19.80;;;-0.40;1.00;;;;;;5012372;28;20230;-71
2024/01/18 02:35:53;;;;;;;26.73;19.70;;;-0.40;1.00;;;;;;5013628;28;20173;-70
2024/01/18 02:38:19;;;;;;;28.10;20.00;;;-0.50;1.00;;;;;;5014368;28;20222;-70
2024/01/18 02:40:45;;;;;;;31.00;20.30;;;-0.30;1.00;;;;;;5029289;28;20180;-70
2024/01/18 02:43:10;;;;;;;54.00;31.30;;;-0.50;1.00;;;;;;5034319;28;20655;-70
2024/01/18 02:45:36;;;;;;;33.93;23.70;;;-0.50;1.00;;;;;;5025833;28;20287;-71
2024/01/18 02:48:03;;;;;;;32.83;23.17;;;-0.40;1.00;;;;;;5013550;28;20570;-71
2024/01/18 02:50:29;;;;;;;40.90;23.57;;;-0.30;1.00;;;;;;5013001;28;20214;-70
2024/01/18 02:52:55;;;;;;;31.67;22.00;;;-0.30;1.00;;;;;;5014243;28;20224;-70
2024/01/18 02:55:20;;;;;;;32.03;22.13;;;-0.30;1.00;;;;;;5011828;28;20645;-70
2024/01/18 02:57:46;;;;;;;32.30;23.07;;;-0.50;1.00;;;;;;5013138;28;20199;-70
2024/01/18 03:00:12;;;;;;;134.97;64.13;;;-0.40;1.00;;;;;;5013299;28;20599;-70
2024/01/18 03:02:38;;;;;;;31.90;21.07;;;-0.40;1.00;;;;;;5013244;28;20183;-70
2024/01/18 03:05:03;;;;;;;31.17;22.00;;;-0.40;1.00;;;;;;5013141;28;20439;-70
2024/01/18 03:07:29;;;;;;;32.87;22.97;;;-0.50;1.00;;;;;;5030872;28;20611;-70
2024/01/18 03:09:55;;;;;;;29.67;21.70;;;-0.50;1.00;;;;;;5032591;28;20168;-70
2024/01/18 03:12:20;;;;;;;31.90;21.37;;;-0.40;1.00;;;;;;5032658;28;20167;-70
2024/01/18 03:14:46;;;;;;;29.10;21.20;;;-0.30;1.00;;;;;;5032928;28;20172;-70
2024/01/18 03:17:11;;;;;;;35.87;22.23;;;-0.40;1.00;;;;;;5032935;28;20270;-70
2024/01/18 03:19:37;;;;;;;32.93;21.57;;;-0.30;1.00;;;;;;5032950;28;20176;-70
2024/01/18 03:22:03;;;;;;;30.47;21.30;;;-0.40;1.00;;;;;;5016339;28;20176;-70
2024/01/18 03:24:29;;;;;;;31.97;22.20;;;-0.40;1.00;;;;;;5012921;28;20717;-70
2024/01/18 03:26:54;;;;;;;31.80;20.17;;;-0.50;1.00;;;;;;5012956;28;20231;-70
2024/01/18 03:29:20;;;;;;;34.80;22.13;;;-0.60;1.00;;;;;;5013064;28;20232;-70
2024/01/18 03:31:45;;;;;;;35.13;23.90;;;-0.50;1.00;;;;;;5012727;28;20227;-71
2024/01/18 03:34:11;;;;;;;37.57;23.20;;;-0.40;1.00;;;;;;5020969;28;20654;-70
2024/01/18 03:36:37;;;;;;;35.43;24.00;;;-0.40;1.00;;;;;;5032433;28;20187;-70
2024/01/18 03:39:02;;;;;;;32.83;23.33;;;-0.50;1.00;;;;;;5032471;28;20250;-70
2024/01/18 03:41:28;;;;;;;35.23;24.67;;;-0.60;1.00;;;;;;5032607;28;20221;-70
2024/01/18 03:43:53;;;;;;;32.80;20.00;;;-0.50;1.00;;;;;;5032391;28;20176;-70
2024/01/18 03:46:19;;;;;;;45.03;24.23;;;-0.60;1.00;;;;;;5032412;28;20650;-70
2024/01/18 03:48:44;;;;;;;36.23;24.70;;;-0.50;4.00;;;;;;5031642;28;20658;-70
2024/01/18 03:51:10;;;;;;;36.93;25.33;;;-0.40;1.40;;;;;;5032134;28;20395;-70
2024/01/18 03:53:43;;;;;;;43.47;24.57;;;-0.60;11.70;;;;;;5032121;28;20305;-70
2024/01/18 03:56:10;;;;;;;37.30;25.37;;;-0.40;22.40;;;;;;5032198;28;20180;-70
2024/01/18 03:58:37;;;;;;;33.20;23.20;;;-0.60;22.40;;;;;;5026678;28;20220;-70
2024/01/18 04:01:02;;;;;;;37.03;25.13;;;-0.60;29.70;;;;;;5012587;28;20210;-70
2024/01/18 04:03:28;;;;;;;38.73;25.10;;;-0.50;27.70;;;;;;5012156;28;20259;-70
2024/01/18 04:05:54;;;;;;;36.33;25.17;;;-0.40;31.70;;;;;;5012134;28;20267;-70
2024/01/18 04:08:19;;;;;;;36.10;24.63;;;-0.30;26.70;;;;;;5012591;28;20200;-70
2024/01/18 04:10:45;;;;;;;38.43;25.33;;;-0.40;24.50;;;;;;5012923;28;20741;-70
2024/01/18 04:13:10;;;;;;;31.30;23.07;;;-0.50;24.20;;;;;;5012120;28;20644;-70
2024/01/18 04:15:36;;;;;;;35.97;25.07;;;-0.50;25.30;;;;;;5011957;28;20180;-70
2024/01/18 04:18:02;;;;;;;32.27;23.33;;;-0.50;23.70;;;;;;5028360;28;20201;-70
2024/01/18 04:20:29;;;;;;;38.67;24.70;;;-0.50;24.20;;;;;;5030951;28;20184;-70
2024/01/18 04:22:54;;;;;;;41.53;25.00;;;-0.30;20.50;;;;;;5031767;28;20199;-70
2024/01/18 04:25:20;;;;;;;32.77;24.00;;;-0.50;18.50;;;;;;5031586;28;20623;-70
2024/01/18 04:27:46;;;;;;;31.50;24.07;;;-0.50;19.20;;;;;;5031391;28;20298;-70
2024/01/18 04:30:12;;;;;;;32.67;24.13;;;-0.40;23.20;;;;;;5020553;28;20278;-70
2024/01/18 04:32:37;;;;;;;36.10;24.27;;;-0.40;27.90;;;;;;5011798;28;20791;-70
2024/01/18 04:35:04;;;;;;;37.93;25.83;;;-0.50;27.00;;;;;;5011688;28;20263;-70
2024/01/18 04:37:30;;;;;;;36.07;25.43;;;-0.50;27.20;;;;;;5011636;28;20514;-70
2024/01/18 04:39:55;;;;;;;32.33;23.80;;;-0.60;24.00;;;;;;5025110;28;20178;-70
2024/01/18 04:42:21;;;;;;;34.53;24.43;;;-0.60;24.50;;;;;;5031458;28;20159;-70
2024/01/18 04:44:47;;;;;;;36.77;23.70;;;-0.40;25.20;;;;;;5031257;28;20570;-70
2024/01/18 04:47:12;;;;;;;38.97;25.80;;;-0.60;31.10;;;;;;5031321;28;20266;-70
2024/01/18 04:49:38;;;;;;;38.53;24.47;;;-0.50;40.20;;;;;;5031068;28;20241;-70
2024/01/18 04:52:04;;;;;;;36.27;25.83;;;-0.70;48.00;;;;;;5031225;28;20207;-70
2024/01/18 04:54:29;;;;;;;34.73;23.83;;;-0.60;59.60;;;;;;5018771;28;20180;-70
2024/01/18 04:56:55;;;;;;;39.70;24.37;;;-0.50;59.50;;;;;;5012341;28;20164;-70
2024/01/18 04:59:21;;;;;;;39.87;27.23;;;-0.40;61.50;;;;;;5030861;28;20191;-70
2024/01/18 05:01:47;;;;;;;38.23;24.37;;;-0.50;55.50;;;;;;5030934;28;20553;-70
2024/01/18 05:04:13;;;;;;;36.50;25.93;;;-0.40;52.50;;;;;;5031209;28;20180;-70
2024/01/18 05:06:38;;;;;;;33.27;25.07;;;-0.30;54.10;;;;;;5030827;28;20672;-70
2024/01/18 05:09:04;;;;;;;37.57;25.43;;;-0.50;61.20;;;;;;5030534;28;20222;-70
2024/01/18 05:11:30;;;;;;;33.73;24.00;;;-0.40;59.50;;;;;;5030536;28;20663;-70
2024/01/18 05:13:56;;;;;;;37.50;25.07;;;-0.40;58.80;;;;;;5011216;28;20172;-70
2024/01/18 05:16:22;;;;;;;32.30;25.27;;;-0.20;55.70;;;;;;5011005;28;20176;-70
2024/01/18 05:18:48;;;;;;;32.83;25.47;;;-0.10;60.80;;;;;;5010656;28;20583;-70
2024/01/18 05:21:13;;;;;;;37.37;25.43;;;-0.20;51.90;;;;;;5010691;28;20230;-70
2024/01/18 05:23:39;;;;;;;35.17;25.00;;;-0.20;36.50;;;;;;5010771;28;20643;-71
2024/01/18 05:26:05;;;;;;;33.80;25.03;;;-0.30;30.00;;;;;;5021119;28;20187;-70
2024/01/18 05:28:30;;;;;;;40.90;26.07;;;-0.40;34.30;;;;;;5030306;28;20204;-70
2024/01/18 05:30:57;;;;;;;37.13;26.70;;;-0.40;35.30;;;;;;5030495;28;20203;-70
2024/01/18 05:33:22;;;;;;;38.57;25.53;;;-0.40;45.40;;;;;;5032731;28;20186;-70
2024/01/18 05:35:48;;;;;;;38.90;27.07;;;-0.20;45.00;;;;;;5033185;28;20184;-70
2024/01/18 05:38:13;;;;;;;41.87;26.87;;;-0.30;52.30;;;;;;5023060;28;20262;-69
2024/01/18 05:40:39;;;;;;;40.40;26.80;;;-0.20;52.60;;;;;;5014672;28;20223;-70
2024/01/18 05:43:04;;;;;;;40.43;26.37;;;-0.40;51.80;;;;;;5016204;28;20251;-70
2024/01/18 05:45:30;;;;;;;40.63;27.10;;;-0.10;54.10;;;;;;5033503;28;20663;-70
2024/01/18 05:47:56;;;;;;;47.00;29.57;;;-0.30;57.00;;;;;;5034058;28;20206;-70
2024/01/18 05:50:23;;;;;;;38.93;26.47;;;-0.20;50.60;;;;;;5033917;28;20214;-70
2024/01/18 05:52:48;;;;;;;40.43;29.00;;;-0.10;45.40;;;;;;5031287;28;20179;-70
2024/01/18 05:55:14;;;;;;;36.73;28.47;;;-0.10;39.70;;;;;;5014412;28;20539;-69
2024/01/18 05:57:39;;;;;;;39.63;27.77;;;-0.20;42.30;;;;;;5014280;28;20282;-71
2024/01/18 06:00:06;;;;;;;42.57;28.07;;;-0.10;40.90;;;;;;5014167;28;20310;-69
2024/01/18 06:02:32;;;;;;;41.70;28.83;;;0.00;43.60;;;;;;5014084;28;20182;-69
2024/01/18 06:04:58;;;;;;;50.80;29.97;;;-0.10;38.00;;;;;;5014227;28;20694;-69
2024/01/18 06:07:24;;;;;;;47.20;32.20;;;-0.20;44.50;;;;;;5013885;28;20610;-71
2024/01/18 06:09:49;;;;;;;46.27;28.87;;;0.10;49.30;;;;;;5013770;28;20176;-70
2024/01/18 06:12:15;;;;;;;50.17;31.73;;;0.10;38.60;;;;;;5021801;28;20594;-70
2024/01/18 06:14:42;;;;;;;49.50;30.73;;;0.20;27.20;;;;;;5033601;28;20175;-70
2024/01/18 06:17:07;;;;;;;46.97;33.63;;;0.20;22.70;;;;;;5032745;28;20660;-70
2024/01/18 06:19:33;;;;;;;48.50;28.33;;;0.10;17.00;;;;;;5029896;28;20200;-70
2024/01/18 06:21:59;;;;;;;43.23;29.07;;;0.10;6.50;;;;;;5013511;28;20282;-70
2024/01/18 06:24:25;;;;;;;44.37;28.73;;;0.20;1.00;;;;;;5013802;28;20180;-70
2024/01/18 06:26:52;;;;;;;37.80;27.77;;;0.20;1.00;;;;;;5012769;28;20180;-70
2024/01/18 06:29:17;;;;;;;40.03;26.33;;;0.10;1.00;;;;;;5013567;28;20290;-70
2024/01/18 06:31:43;;;;;;;40.63;27.77;;;0.00;1.00;;;;;;5017761;28;20282;-71
2024/01/18 06:34:09;;;;;;;40.87;27.27;;;0.00;1.00;;;;;;5033292;28;20176;-70
2024/01/18 06:36:37;;;;;;;38.03;27.10;;;0.20;1.00;;;;;;5033317;28;20221;-70
2024/01/18 06:39:03;;;;;;;40.60;26.20;;;0.20;1.00;;;;;;5032913;28;20191;-70
2024/01/18 06:41:29;;;;;;;35.33;24.53;;;0.20;1.00;;;;;;5033242;28;20202;-70
2024/01/18 06:43:55;;;;;;;34.00;24.87;;;0.00;1.00;;;;;;5032756;28;20175;-69
2024/01/18 06:46:21;;;;;;;36.87;23.47;;;0.00;1.00;;;;;;5029749;28;20645;-70
2024/01/18 06:48:53;;;;;;;32.17;23.43;;;-0.30;1.00;;;;;;5013126;28;20662;-70
2024/01/18 06:51:21;;;;;;;37.27;26.13;;;-0.10;1.00;;;;;;5013258;28;20203;-70
2024/01/18 06:53:47;;;;;;;37.57;26.77;;;-0.40;1.00;;;;;;5013439;28;20183;-70
2024/01/18 06:56:13;;;;;;;33.57;24.27;;;-0.40;1.00;;;;;;5013330;28;20169;-70
2024/01/18 06:58:40;;;;;;;44.80;28.93;;;-0.50;1.00;;;;;;5012882;28;20188;-70
2024/01/18 07:01:06;;;;;;;37.60;25.63;;;-0.40;1.00;;;;;;5014725;28;20590;-70
2024/01/18 07:03:35;;;;;;;44.50;29.80;;;-0.30;1.00;;;;;;5033215;28;20198;-70
2024/01/18 07:06:04;;;;;;;41.47;28.23;;;-0.40;1.00;;;;;;5032859;28;20171;-71
2024/01/18 07:08:30;;;;;;;41.50;28.50;;;-0.60;1.00;;;;;;5019855;28;20573;-70
2024/01/18 07:10:56;;;;;;;44.23;26.67;;;-0.60;1.00;;;;;;5012878;28;20576;-70
2024/01/18 07:13:22;;;;;;;38.67;26.60;;;-0.50;1.00;;;;;;5012851;28;20185;-70
2024/01/18 07:15:48;;;;;;;43.13;26.27;;;-0.60;1.00;;;;;;5013752;28;20555;-70
2024/01/18 07:18:14;;;;;;;42.73;27.60;;;-0.60;1.00;;;;;;5012449;28;20200;-71
2024/01/18 07:20:39;;;;;;;46.63;24.93;;;-0.80;1.00;;;;;;5012272;28;20173;-72
2024/01/18 07:23:05;;;;;;;38.63;25.60;;;-0.70;1.00;;;;;;5012506;28;20184;-69
2024/01/18 07:25:31;;;;;;;38.03;26.40;;;-0.80;1.00;;;;;;5012581;28;20254;-70
2024/01/18 07:27:57;;;;;;;37.73;26.83;;;-0.80;1.00;;;;;;5013752;28;20564;-70
2024/01/18 07:30:22;;;;;;;39.27;27.03;;;-0.80;1.00;;;;;;5012347;28;20215;-70
2024/01/18 07:32:48;;;;;;;33.70;24.47;;;-0.90;1.00;;;;;;5012382;28;20167;-70
2024/01/18 07:35:15;;;;;;;35.27;25.47;;;-0.90;1.00;;;;;;5012395;28;20323;-70
2024/01/18 07:37:41;;;;;;;41.70;28.23;;;-1.00;1.00;;;;;;5012559;28;20192;-70
2024/01/18 07:40:07;;;;;;;39.70;27.00;;;-1.00;1.00;;;;;;5012162;28;20739;-71
2024/01/18 07:42:33;;;;;;;37.90;24.70;;;-1.00;1.00;;;;;;5021168;28;20175;-71
2024/01/18 07:44:58;;;;;;;40.27;26.93;;;-1.10;1.00;;;;;;5031802;28;20172;-71
2024/01/18 07:47:25;;;;;;;35.03;26.47;;;-1.00;1.00;;;;;;5032004;28;20667;-70
2024/01/18 07:49:50;;;;;;;42.90;27.73;;;-1.00;1.00;;;;;;5030685;28;20186;-68
2024/01/18 07:52:17;;;;;;;44.13;27.70;;;-1.10;1.00;;;;;;5031488;28;20647;-69
2024/01/18 07:54:43;;;;;;;46.77;27.37;;;-1.20;1.00;;;;;;5031193;28;20194;-69
2024/01/18 07:57:08;;;;;;;41.60;25.40;;;-1.30;1.00;;;;;;5030636;28;20593;-69
2024/01/18 07:59:34;;;;;;;40.23;25.50;;;-1.50;1.00;;;;;;5030085;28;20191;-70
2024/01/18 08:02:00;;;;;;;35.23;24.77;;;-1.30;1.00;;;;;;5031756;28;20175;-70
2024/01/18 08:04:26;;;;;;;40.70;25.87;;;-1.60;1.00;;;;;;5031460;28;20556;-70
2024/01/18 08:06:52;;;;;;;42.17;26.33;;;-1.50;1.00;;;;;;5031449;28;20183;-70
2024/01/18 08:09:18;;;;;;;33.60;24.67;;;-1.70;1.00;;;;;;5030899;28;20195;-70
2024/01/18 08:11:43;;;;;;;39.13;24.83;;;-1.80;1.00;;;;;;5011911;28;20239;-70
2024/01/18 08:14:11;;;;;;;34.80;25.57;;;-1.70;1.00;;;;;;5011552;28;20298;-70
2024/01/18 08:16:36;;;;;;;37.90;26.00;;;-1.70;1.00;;;;;;5010369;28;20176;-70
2024/01/18 08:19:02;;;;;;;39.10;25.43;;;-1.80;1.00;;;;;;5011344;28;20322;-70
2024/01/18 08:21:28;;;;;;;37.83;23.93;;;-2.00;1.00;;;;;;5011752;28;20211;-70
2024/01/18 08:23:54;;;;;;;36.87;25.30;;;-1.90;1.00;;;;;;5011678;28;20187;-69
2024/01/18 08:26:21;;;;;;;44.57;25.63;;;-1.90;1.00;;;;;;5012866;28;20202;-70
2024/01/18 08:28:47;;;;;;;41.13;26.67;;;-2.10;1.00;;;;;;5011816;28;20196;-71
2024/01/18 08:31:12;;;;;;;50.20;27.30;;;-2.10;1.00;;;;;;5011804;28;20211;-70
2024/01/18 08:33:38;;;;;;;44.40;26.03;;;-2.10;1.00;;;;;;5011525;28;20174;-70
2024/01/18 08:36:04;;;;;;;47.53;29.47;;;-2.10;1.00;;;;;;5011335;28;20250;-70
2024/01/18 08:38:30;;;;;;;41.17;25.40;;;-2.00;1.00;;;;;;5020503;28;20253;-69
2024/01/18 08:40:57;;;;;;;47.60;27.07;;;-2.20;1.00;;;;;;5030965;28;20175;-70
2024/01/18 08:43:26;;;;;;;41.60;26.47;;;-2.00;1.00;;;;;;5031387;28;20237;-70
2024/01/18 08:45:55;;;;;;;48.33;26.63;;;-2.30;1.00;;;;;;5031009;28;20605;-70
2024/01/18 08:48:21;;;;;;;44.87;27.10;;;-2.30;1.00;;;;;;5030942;28;20246;-69
2024/01/18 08:50:47;;;;;;;49.77;30.50;;;-2.10;1.00;;;;;;5030769;28;20698;-70
2024/01/18 08:53:12;;;;;;;45.03;28.07;;;-2.10;11.30;;;;;;5020514;28;20207;-70
2024/01/18 08:55:38;;;;;;;41.33;27.33;;;-1.90;42.70;;;;;;5011183;28;20169;-70
2024/01/18 08:58:06;;;;;;;50.33;31.37;;;-1.40;75.60;;;;;;5011088;28;20184;-70
2024/01/18 09:00:31;;;;;;;37.73;24.83;;;-1.00;99.30;;;;;;5011327;28;20276;-70
2024/01/18 09:02:57;;;;;;;54.07;29.47;;;-0.60;86.40;;;;;;5011222;28;20592;-70
2024/01/18 09:05:22;;;;;;;50.87;25.57;;;-0.40;24.00;;;;;;5011228;28;20172;-70
2024/01/18 09:07:48;;;;;;;41.33;24.83;;;-0.10;1.00;;;;;;5014347;28;20226;-69
2024/01/18 09:10:14;;;;;;;38.03;26.70;;;0.10;1.00;;;;;;5015039;28;20667;-71
2024/01/18 09:12:39;;;;;;;36.83;24.60;;;0.30;1.00;;;;;;5014687;28;20203;-70
2024/01/18 09:15:05;;;;;;;32.80;24.37;;;0.60;99.90;;;;;;5015019;28;20168;-70
2024/01/18 09:17:31;;;;;;;43.87;25.10;;;0.90;1.00;;;;;;5028090;28;20183;-69
2024/01/18 09:19:57;;;;;;;41.83;26.87;;;1.10;1.00;;;;;;5034492;28;20246;-70
2024/01/18 09:22:23;;;;;;;38.40;26.57;;;1.50;99.90;;;;;;5034629;28;20170;-70
2024/01/18 09:24:49;;;;;;;47.83;25.80;;;1.80;1.00;;;;;;5034956;28;20168;-70
2024/01/18 09:27:15;;;;;;;33.77;22.63;;;2.10;1.00;;;;;;5034459;28;20172;-70
2024/01/18 09:29:41;;;;;;;36.33;21.67;;;2.00;99.90;;;;;;5029571;28;20176;-70
2024/01/18 09:32:06;;;;;;;26.43;21.07;;;2.10;99.90;;;;;;5014718;28;20218;-70
2024/01/18 09:34:33;;;;;;;34.40;20.20;;;2.30;99.90;;;;;;5014971;28;20251;-71
2024/01/18 09:36:58;;;;;;;27.63;19.53;;;2.20;99.90;;;;;;5014905;28;20202;-71
2024/01/18 09:39:24;;;;;;;31.10;19.13;;;2.30;99.90;;;;;;5014801;28;20664;-70
2024/01/18 09:41:52;;;;;;;26.53;18.50;;;2.50;85.90;;;;;;5014764;28;20648;-71
2024/01/18 09:44:26;;;;;;;23.27;17.57;;;2.60;28.10;;;;;;5018386;28;20179;-70
2024/01/18 09:46:53;;;;;;;27.87;19.00;;;2.60;1.00;;;;;;5035279;28;20163;-70
2024/01/18 09:49:19;;;;;;;25.00;18.97;;;2.60;7.80;;;;;;5034766;28;20238;-71
2024/01/18 09:51:45;;;;;;;25.47;17.60;;;2.80;14.80;;;;;;5034781;28;20207;-72
2024/01/18 09:54:11;;;;;;;22.77;17.13;;;3.10;15.90;;;;;;5034265;28;20519;-71
2024/01/18 09:56:43;;;;;;;26.80;17.80;;;3.30;1.00;;;;;;5033987;28;20542;-70
2024/01/18 09:59:18;;;;;;;23.13;16.90;;;3.40;1.00;;;;;;5015620;28;20570;-71
2024/01/18 10:01:44;;;;;;;23.30;17.03;;;3.50;1.00;;;;;;5014430;28;20168;-69
2024/01/18 10:04:13;;;;;;;28.77;19.23;;;3.60;1.00;;;;;;5014189;28;20178;-70
2024/01/18 10:06:40;;;;;;;25.43;18.67;;;3.90;1.00;;;;;;5014303;28;20664;-71
2024/01/18 10:09:10;;;;;;;26.80;17.93;;;4.30;1.00;;;;;;5013793;28;20227;-71
2024/01/18 10:11:35;;;;;;;23.80;16.53;;;4.80;1.00;;;;;;5014101;28;20243;-71
2024/01/18 10:14:02;;;;;;;21.43;16.20;;;5.30;1.00;;;;;;5032633;28;20206;-71
2024/01/18 10:16:32;;;;;;;23.60;16.70;;;5.70;1.00;;;;;;5016081;28;20176;-71
2024/01/18 10:19:02;;;;;;;22.47;16.47;;;5.80;1.00;;;;;;5012945;28;20682;-71
2024/01/18 10:21:28;;;;;;;25.13;17.23;;;5.60;1.00;;;;;;5019399;28;20195;-71
2024/01/18 10:23:55;;;;;;;30.27;16.63;;;5.30;1.00;;;;;;5016246;28;20199;-71
2024/01/18 10:26:22;;;;;;;23.00;15.93;;;5.10;1.00;;;;;;5013853;28;20196;-71
2024/01/18 10:28:48;;;;;;;25.90;15.50;;;4.90;1.00;;;;;;5013781;28;20193;-70
2024/01/18 10:31:14;;;;;;;23.50;16.07;;;4.50;1.00;;;;;;5030286;28;20566;-70
2024/01/18 10:33:40;;;;;;;21.77;15.13;;;4.30;1.00;;;;;;5033731;28;20172;-71
2024/01/18 10:36:06;;;;;;;20.00;15.07;;;4.10;1.00;;;;;;5033154;28;20178;-70
2024/01/18 10:38:35;;;;;;;24.83;15.07;;;4.20;1.00;;;;;;5033137;28;20196;-70
2024/01/18 10:41:02;;;;;;;20.73;14.90;;;4.10;1.00;;;;;;5033162;28;20194;-70
2024/01/18 10:43:32;;;;;;;22.13;14.83;;;4.00;1.00;;;;;;5033395;28;20179;-70
2024/01/18 10:45:58;;;;;;;22.07;15.10;;;4.30;1.00;;;;;;5014432;28;20202;-71
2024/01/18 10:48:29;;;;;;;18.57;14.37;;;4.30;1.00;;;;;;5012062;28;20200;-71
2024/01/18 10:50:56;;;;;;;20.70;15.00;;;4.30;1.00;;;;;;5013157;28;20607;-70
2024/01/18 10:53:24;;;;;;;19.00;14.47;;;4.40;1.00;;;;;;5013104;28;20195;-71
2024/01/18 10:55:51;;;;;;;21.00;14.13;;;4.30;1.00;;;;;;5013189;28;20200;-70
2024/01/18 10:58:17;;;;;;;20.67;14.10;;;4.30;1.00;;;;;;5024685;28;20226;-69
2024/01/18 11:00:43;;;;;;;18.43;14.03;;;4.30;1.00;;;;;;5032981;28;20167;-69
2024/01/18 11:03:09;;;;;;;17.37;12.87;;;4.30;1.00;;;;;;5032644;28;20518;-69
2024/01/18 11:05:36;;;;;;;18.90;13.03;;;4.20;1.00;;;;;;5032844;28;20171;-70
2024/01/18 11:08:05;;;;;;;16.70;13.40;;;4.10;1.00;;;;;;5013088;28;20294;-70
2024/01/18 11:10:32;;;;;;;19.10;14.00;;;4.00;1.00;;;;;;5013489;28;20207;-70
2024/01/18 11:12:58;;;;;;;20.80;13.23;;;4.20;1.00;;;;;;5014596;28;20190;-71
2024/01/18 11:15:24;;;;;;;22.10;14.43;;;4.30;1.00;;;;;;5012888;28;20164;-70
2024/01/18 11:17:51;;;;;;;20.77;14.17;;;4.30;1.00;;;;;;5012973;28;20184;-71
2024/01/18 11:20:18;;;;;;;21.90;14.67;;;4.20;1.00;;;;;;5012757;28;20168;-71
2024/01/18 11:22:45;;;;;;;24.07;15.23;;;4.30;1.00;;;;;;5011074;28;20715;-70
2024/01/18 11:25:12;;;;;;;19.60;14.03;;;4.30;1.00;;;;;;5012275;28;20230;-70
2024/01/18 11:27:40;;;;;;;17.63;13.73;;;4.60;1.00;;;;;;5012511;28;20219;-70
2024/01/18 11:30:11;;;;;;;17.70;14.33;;;4.70;1.00;;;;;;5011360;28;20176;-70
2024/01/18 11:32:38;;;;;;;17.60;13.63;;;4.70;1.00;;;;;;5012787;28;20672;-71
2024/01/18 11:35:12;;;;;;;19.67;13.73;;;4.50;1.00;;;;;;5012325;28;20580;-71
2024/01/18 11:37:38;;;;;;;21.07;13.20;;;4.50;1.00;;;;;;5012708;28;20191;-71
2024/01/18 11:40:09;;;;;;;17.73;14.03;;;4.50;1.00;;;;;;5012614;28;20535;-70
2024/01/18 11:42:38;;;;;;;19.17;14.17;;;4.80;1.00;;;;;;5012584;28;20663;-70
2024/01/18 11:45:04;;;;;;;20.67;13.50;;;5.40;1.00;;;;;;5012321;28;20180;-70
2024/01/18 11:47:32;;;;;;;19.30;13.23;;;5.60;1.00;;;;;;5012442;28;20546;-70
2024/01/18 11:50:01;;;;;;;15.70;11.80;;;5.50;1.00;;;;;;5011902;28;20190;-70
2024/01/18 11:52:30;;;;;;;13.93;11.00;;;5.60;1.00;;;;;;5012514;28;20172;-70
2024/01/18 11:54:56;;;;;;;17.50;12.00;;;5.50;1.00;;;;;;5030272;28;20172;-70
2024/01/18 11:57:23;;;;;;;13.37;11.47;;;5.20;1.00;;;;;;5031769;28;20172;-71
2024/01/18 11:59:49;;;;;;;18.37;13.13;;;4.90;1.00;;;;;;5031639;28;20178;-70
2024/01/18 12:02:15;;;;;;;23.57;14.77;;;5.00;1.00;;;;;;5031622;28;20591;-71
2024/01/18 12:04:41;;;;;;;18.63;15.10;;;5.30;1.00;;;;;;5031718;28;20186;-70
2024/01/18 12:07:08;;;;;;;24.83;17.43;;;5.60;1.00;;;;;;5030040;28;20262;-71
2024/01/18 12:09:34;;;;;;;38.23;23.47;;;5.70;1.00;;;;;;5031547;28;20188;-71
2024/01/18 12:12:01;;;;;;;44.40;26.97;;;5.40;1.00;;;;;;5022001;28;20200;-71
2024/01/18 12:14:27;;;;;;;31.43;25.13;;;5.20;1.00;;;;;;5010549;28;20172;-71
2024/01/18 12:16:53;;;;;;;29.07;20.80;;;4.70;1.00;;;;;;5011897;28;20168;-71
2024/01/18 12:19:36;;;;;;;25.33;17.13;;;4.30;1.00;;;;;;5011155;28;20324;-71
2024/01/18 12:22:05;;;;;;;22.37;15.47;;;3.90;1.00;;;;;;5023869;28;20190;-71
2024/01/18 12:24:32;;;;;;;19.23;14.13;;;3.80;1.00;;;;;;5031554;28;20190;-71
2024/01/18 12:26:58;;;;;;;22.43;14.43;;;3.90;1.00;;;;;;5031558;28;20258;-71
2024/01/18 12:29:24;;;;;;;15.77;14.10;;;3.80;1.00;;;;;;5030918;28;20206;-73
2024/01/18 12:31:50;;;;;;;18.33;14.30;;;4.00;1.00;;;;;;5031265;28;20210;-72